Time;durP1;ratioP1;P1;durP2;ratioP2;P2;SDS_P1;SDS_P2;PMS_P1;PMS_P2;Temp;Humidity;BMP_temperature;BMP_pressure;BME280_temperature;BME280_humidity;BME280_pressure;Samples;Min_cycle;Max_cycle;Signal;HPM_P1;HPM_P2
2022/08/14 00:00:52;;;;;;;16.93;7.62;;;;;;;;;;1743083;82;20992;-81
2022/08/14 00:03:23;;;;;;;23.77;7.53;;;;;;;;;;1743209;82;21590;-81
2022/08/14 00:05:50;;;;;;;17.37;7.58;;;;;;;;;;1702751;83;21063;-81
2022/08/14 00:08:15;;;;;;;14.40;7.45;;;;;;;;;;1702589;84;21869;-82
2022/08/14 00:10:41;;;;;;;24.98;7.15;;;;;;;;;;1702656;84;21040;-81
2022/08/14 00:13:08;;;;;;;16.60;7.40;;;;;;;;;;1702830;84;20952;-82
2022/08/14 00:15:37;;;;;;;16.20;7.58;;;;;;;;;;1702708;84;21099;-81
2022/08/14 00:18:05;;;;;;;19.95;7.37;;;;;;;;;;1702369;84;20941;-81
2022/08/14 00:20:33;;;;;;;22.07;7.60;;;;;;;;;;1702812;84;21165;-81
2022/08/14 00:22:59;;;;;;;19.85;7.33;;;;;;;;;;1702562;84;21047;-81
2022/08/14 00:25:27;;;;;;;22.00;7.90;;;;;;;;;;1702490;84;21532;-81
2022/08/14 00:27:53;;;;;;;18.48;7.42;;;;;;;;;;1702795;84;21464;-81
2022/08/14 00:30:20;;;;;;;14.10;7.10;;;;;;;;;;1702577;83;21023;-81
2022/08/14 00:32:46;;;;;;;15.98;7.47;;;;;;;;;;1702723;84;21061;-81
2022/08/14 00:35:12;;;;;;;17.57;8.08;;;;;;;;;;1702632;84;20861;-81
2022/08/14 00:37:40;;;;;;;18.15;7.70;;;;;;;;;;1702830;84;21008;-81
2022/08/14 00:40:08;;;;;;;16.62;7.22;;;;;;;;;;1702742;84;21049;-81
2022/08/14 00:42:33;;;;;;;18.65;7.40;;;;;;;;;;1710869;82;21591;-81
2022/08/14 00:44:59;;;;;;;16.25;7.15;;;;;;;;;;1746421;81;21056;-81
2022/08/14 00:47:25;;;;;;;21.27;7.53;;;;;;;;;;1743552;82;21536;-81
2022/08/14 00:49:52;;;;;;;15.23;7.50;;;;;;;;;;1743273;82;20889;-81
2022/08/14 00:52:19;;;;;;;14.18;7.12;;;;;;;;;;1743355;82;21031;-81
2022/08/14 00:54:49;;;;;;;21.02;8.05;;;;;;;;;;1743384;82;21023;-81
2022/08/14 00:57:14;;;;;;;20.55;7.50;;;;;;;;;;1742932;82;21563;-81
2022/08/14 00:59:40;;;;;;;20.27;7.20;;;;;;;;;;1743385;82;20872;-81
2022/08/14 01:02:06;;;;;;;15.78;7.78;;;;;;;;;;1743144;82;21520;-81
2022/08/14 01:04:34;;;;;;;17.48;7.47;;;;;;;;;;1743469;82;20864;-81
2022/08/14 01:07:00;;;;;;;17.23;7.40;;;;;;;;;;1743071;82;21007;-81
2022/08/14 01:09:28;;;;;;;18.92;7.10;;;;;;;;;;1747283;80;21033;-81
2022/08/14 01:11:54;;;;;;;17.57;8.00;;;;;;;;;;1765411;81;21035;-81
2022/08/14 01:14:20;;;;;;;12.80;7.50;;;;;;;;;;1764055;81;20987;-81
2022/08/14 01:16:46;;;;;;;12.70;6.50;;;;;;;;;;1763833;81;21004;-81
2022/08/14 01:21:57;;;;;;;15.53;7.70;;;;;;;;;;1763536;81;21036;-81
2022/08/14 01:24:24;;;;;;;13.72;6.72;;;;;;;;;;1763911;80;22116;-81
2022/08/14 01:26:52;;;;;;;15.60;7.62;;;;;;;;;;1760806;81;21019;-81
2022/08/14 01:29:18;;;;;;;19.62;7.12;;;;;;;;;;1763556;80;21110;-81
2022/08/14 01:34:15;;;;;;;15.30;7.17;;;;;;;;;;1761085;81;21001;-81
2022/08/14 01:36:41;;;;;;;16.52;7.10;;;;;;;;;;1763758;80;20960;-81
2022/08/14 01:39:13;;;;;;;19.67;7.90;;;;;;;;;;1763649;80;20854;-82
2022/08/14 01:41:40;;;;;;;16.42;7.97;;;;;;;;;;1688586;83;21140;-81
2022/08/14 01:44:11;;;;;;;18.37;7.25;;;;;;;;;;1685344;83;21677;-81
2022/08/14 01:46:39;;;;;;;13.70;7.33;;;;;;;;;;1679026;85;21059;-81
2022/08/14 01:49:07;;;;;;;17.32;8.28;;;;;;;;;;1679257;85;21086;-82
2022/08/14 01:51:33;;;;;;;15.32;7.67;;;;;;;;;;1679020;85;21035;-81
2022/08/14 01:54:08;;;;;;;15.08;7.90;;;;;;;;;;1679038;85;21149;-81
2022/08/14 01:59:05;;;;;;;14.78;7.37;;;;;;;;;;1657636;86;21034;-82
2022/08/14 02:01:33;;;;;;;15.45;7.22;;;;;;;;;;1657894;86;21137;-82
2022/08/14 02:03:59;;;;;;;20.40;7.67;;;;;;;;;;1657728;86;21078;-82
2022/08/14 02:06:25;;;;;;;14.28;7.40;;;;;;;;;;1658255;86;20924;-81
2022/08/14 02:08:53;;;;;;;17.87;7.40;;;;;;;;;;1657970;86;22335;-81
2022/08/14 02:11:22;;;;;;;14.45;7.62;;;;;;;;;;1657847;86;21205;-81
2022/08/14 02:13:51;;;;;;;13.85;7.42;;;;;;;;;;1676742;85;21058;-81
2022/08/14 02:16:20;;;;;;;20.12;7.87;;;;;;;;;;1681377;85;21015;-82
2022/08/14 02:18:45;;;;;;;15.45;7.83;;;;;;;;;;1681162;85;21639;-81
2022/08/14 02:21:17;;;;;;;16.82;8.30;;;;;;;;;;1681429;85;20898;-81
2022/08/14 02:23:39;;;;;;;15.50;8.10;;;;;;;;;;1677427;85;21039;-81
2022/08/14 02:26:14;;;;;;;17.80;7.87;;;;;;;;;;1680993;85;21692;-81
2022/08/14 02:28:40;;;;;;;18.75;8.05;;;;;;;;;;1679119;85;21038;-81
2022/08/14 02:31:07;;;;;;;17.55;7.92;;;;;;;;;;1681328;85;21074;-82
2022/08/14 02:33:34;;;;;;;17.37;7.78;;;;;;;;;;1680946;85;21097;-81
2022/08/14 02:36:02;;;;;;;20.85;7.67;;;;;;;;;;1681376;85;21069;-81
2022/08/14 02:38:29;;;;;;;16.52;7.97;;;;;;;;;;1680449;84;21018;-81
2022/08/14 02:40:56;;;;;;;18.48;7.90;;;;;;;;;;1696628;84;21014;-82
2022/08/14 02:43:22;;;;;;;16.32;7.75;;;;;;;;;;1699560;84;21135;-81
2022/08/14 02:45:48;;;;;;;17.80;7.40;;;;;;;;;;1711107;83;20884;-81
2022/08/14 02:48:14;;;;;;;13.20;7.55;;;;;;;;;;1697179;83;21075;-82
2022/08/14 02:50:40;;;;;;;17.32;7.17;;;;;;;;;;1711977;83;21042;-82
2022/08/14 02:53:07;;;;;;;21.55;8.35;;;;;;;;;;1702074;83;21051;-79
2022/08/14 02:55:33;;;;;;;19.35;8.08;;;;;;;;;;1710887;83;21063;-82
2022/08/14 02:57:59;;;;;;;15.83;7.45;;;;;;;;;;1712162;83;20892;-82
2022/08/14 03:00:25;;;;;;;13.50;7.33;;;;;;;;;;1707549;83;21938;-79
2022/08/14 03:02:51;;;;;;;15.58;7.17;;;;;;;;;;1751444;80;20993;-81
2022/08/14 03:05:17;;;;;;;15.63;7.85;;;;;;;;;;1773540;80;20974;-79
2022/08/14 03:07:44;;;;;;;14.33;7.55;;;;;;;;;;1766650;80;21140;-81
2022/08/14 03:10:10;;;;;;;14.63;7.60;;;;;;;;;;1764732;80;21043;-83
2022/08/14 03:12:36;;;;;;;14.33;7.00;;;;;;;;;;1767186;80;21123;-82
2022/08/14 03:17:31;;;;;;;11.88;6.67;;;;;;;;;;1679259;84;21027;-79
2022/08/14 03:19:57;;;;;;;13.95;6.65;;;;;;;;;;1685049;84;21060;-84
2022/08/14 03:22:23;;;;;;;10.95;6.47;;;;;;;;;;1689139;84;20962;-82
2022/08/14 03:24:49;;;;;;;17.30;7.25;;;;;;;;;;1678599;84;21080;-83
2022/08/14 03:27:15;;;;;;;13.62;6.35;;;;;;;;;;1689275;84;21105;-83
2022/08/14 03:29:40;;;;;;;19.15;6.70;;;;;;;;;;1689463;84;20862;-82
2022/08/14 03:32:06;;;;;;;13.65;6.08;;;;;;;;;;1688985;85;21594;-82
2022/08/14 03:34:32;;;;;;;13.25;6.05;;;;;;;;;;1689109;85;21101;-83
2022/08/14 03:36:58;;;;;;;11.60;5.78;;;;;;;;;;1689050;84;21073;-82
2022/08/14 03:39:24;;;;;;;14.30;6.42;;;;;;;;;;1686133;85;21063;-87
2022/08/14 03:41:53;;;;;;;13.38;6.08;;;;;;;;;;1691735;84;21048;-82
2022/08/14 03:44:19;;;;;;;14.18;5.87;;;;;;;;;;1690556;84;21062;-84
2022/08/14 03:46:45;;;;;;;15.72;6.40;;;;;;;;;;1684602;84;21112;-82
2022/08/14 03:49:11;;;;;;;12.80;5.72;;;;;;;;;;1666140;85;21851;-84
2022/08/14 03:51:37;;;;;;;18.75;6.42;;;;;;;;;;1688351;84;20841;-84
2022/08/14 03:54:07;;;;;;;14.30;6.20;;;;;;;;;;1692310;84;20912;-79
2022/08/14 03:56:32;;;;;;;14.73;6.00;;;;;;;;;;1677122;84;21052;-85
2022/08/14 03:59:01;;;;;;;10.65;5.53;;;;;;;;;;1681470;84;21374;-80
2022/08/14 04:01:27;;;;;;;12.47;5.60;;;;;;;;;;1671882;85;21129;-81
2022/08/14 04:03:56;;;;;;;15.48;5.40;;;;;;;;;;1683557;84;21001;-78
2022/08/14 04:06:22;;;;;;;9.65;5.15;;;;;;;;;;1689931;84;21070;-79
2022/08/14 04:08:49;;;;;;;14.90;5.75;;;;;;;;;;1684115;84;20847;-81
2022/08/14 04:11:16;;;;;;;13.68;5.53;;;;;;;;;;1679015;85;21119;-79
2022/08/14 04:13:42;;;;;;;9.68;4.90;;;;;;;;;;1700368;80;22518;-81
2022/08/14 04:16:11;;;;;;;19.48;5.20;;;;;;;;;;1778347;80;21039;-79
2022/08/14 04:18:46;;;;;;;19.82;5.42;;;;;;;;;;1694946;84;21023;-80
2022/08/14 04:21:13;;;;;;;13.35;5.30;;;;;;;;;;1694958;84;21633;-81
2022/08/14 04:23:39;;;;;;;11.80;5.15;;;;;;;;;;1694980;84;21578;-82
2022/08/14 04:26:10;;;;;;;13.22;5.40;;;;;;;;;;1695243;84;21132;-81
2022/08/14 04:28:37;;;;;;;11.00;5.12;;;;;;;;;;1695311;84;21345;-80
2022/08/14 04:31:05;;;;;;;13.98;5.30;;;;;;;;;;1695393;84;21077;-81
2022/08/14 04:33:32;;;;;;;13.25;5.60;;;;;;;;;;1695664;84;21059;-80
2022/08/14 04:35:58;;;;;;;11.88;5.12;;;;;;;;;;1694002;84;21708;-80
2022/08/14 04:43:53;;;;;;;6.17;4.45;;;;;;;;;;1682690;84;21596;-83
2022/08/14 04:46:21;;;;;;;9.15;4.87;;;;;;;;;;1662105;84;21695;-85
2022/08/14 04:48:47;;;;;;;11.63;5.80;;;;;;;;;;1662600;84;21109;-81
2022/08/14 04:51:17;;;;;;;9.15;5.35;;;;;;;;;;1662669;84;21328;-79
2022/08/14 04:53:44;;;;;;;8.48;4.47;;;;;;;;;;1659049;84;20989;-81
2022/08/14 04:56:16;;;;;;;6.70;4.22;;;;;;;;;;1663128;84;21538;-82
2022/08/14 04:58:42;;;;;;;18.67;4.90;;;;;;;;;;1635177;87;21629;-80
2022/08/14 05:01:09;;;;;;;9.78;4.72;;;;;;;;;;1611176;86;21088;-80
2022/08/14 05:03:36;;;;;;;24.20;5.47;;;;;;;;;;1627313;86;21138;-81
2022/08/14 05:06:06;;;;;;;11.95;4.72;;;;;;;;;;1634682;86;21049;-81
2022/08/14 05:08:32;;;;;;;16.15;4.40;;;;;;;;;;1631395;86;21026;-81
2022/08/14 05:11:01;;;;;;;38.20;5.85;;;;;;;;;;1631466;86;21052;-81
2022/08/14 05:13:29;;;;;;;11.90;4.55;;;;;;;;;;1635436;86;21112;-81
2022/08/14 05:15:57;;;;;;;11.93;4.90;;;;;;;;;;1693433;83;21168;-81
2022/08/14 05:18:25;;;;;;;18.45;4.97;;;;;;;;;;1680537;84;21531;-82
2022/08/14 05:20:53;;;;;;;32.17;5.35;;;;;;;;;;1671195;84;21571;-80
2022/08/14 05:23:22;;;;;;;9.90;4.20;;;;;;;;;;1694618;84;21564;-80
2022/08/14 05:25:53;;;;;;;17.23;4.92;;;;;;;;;;1672173;84;21559;-86
2022/08/14 05:28:20;;;;;;;9.25;4.70;;;;;;;;;;1693780;84;21050;-83
2022/08/14 05:30:51;;;;;;;13.22;4.60;;;;;;;;;;1703716;83;48085;-83
2022/08/14 05:33:18;;;;;;;15.50;4.75;;;;;;;;;;1603891;88;21170;-81
2022/08/14 05:35:45;;;;;;;9.43;4.90;;;;;;;;;;1605163;88;21097;-83
2022/08/14 05:38:13;;;;;;;9.13;4.85;;;;;;;;;;1605781;88;21108;-81
2022/08/14 05:40:40;;;;;;;7.53;4.10;;;;;;;;;;1610185;87;21695;-83
2022/08/14 05:43:06;;;;;;;12.37;4.58;;;;;;;;;;1605719;89;21115;-83
2022/08/14 05:45:34;;;;;;;11.68;4.83;;;;;;;;;;1616883;86;21105;-84
2022/08/14 05:48:02;;;;;;;13.28;4.20;;;;;;;;;;1623539;86;21565;-85
2022/08/14 05:50:28;;;;;;;17.95;4.62;;;;;;;;;;1620342;87;21543;-80
2022/08/14 05:52:53;;;;;;;15.18;4.95;;;;;;;;;;1623650;87;21196;-81
2022/08/14 05:55:20;;;;;;;13.10;4.85;;;;;;;;;;1620837;87;21031;-79
2022/08/14 05:57:55;;;;;;;23.92;4.83;;;;;;;;;;1623978;87;21067;-79
2022/08/14 06:00:28;;;;;;;17.52;5.15;;;;;;;;;;1625238;87;21595;-77
2022/08/14 06:02:55;;;;;;;12.73;5.15;;;;;;;;;;1630330;87;21159;-79
2022/08/14 06:05:22;;;;;;;20.60;5.03;;;;;;;;;;1628805;87;21280;-79
2022/08/14 06:07:47;;;;;;;10.70;4.47;;;;;;;;;;1631940;87;21043;-81
2022/08/14 06:10:13;;;;;;;12.05;4.75;;;;;;;;;;1632350;87;20936;-75
2022/08/14 06:12:39;;;;;;;16.57;4.90;;;;;;;;;;1632407;87;20862;-78
2022/08/14 06:15:07;;;;;;;13.78;4.70;;;;;;;;;;1632316;87;21274;-78
2022/08/14 06:17:47;;;;;;;12.78;4.50;;;;;;;;;;1631466;87;21147;-79
2022/08/14 06:20:13;;;;;;;13.72;5.33;;;;;;;;;;1628966;87;21587;-78
2022/08/14 06:22:40;;;;;;;16.55;4.50;;;;;;;;;;1631468;87;21011;-80
2022/08/14 06:25:08;;;;;;;17.32;5.00;;;;;;;;;;1631890;87;21103;-78
2022/08/14 06:27:38;;;;;;;16.55;4.90;;;;;;;;;;1632062;87;21037;-79
2022/08/14 06:30:06;;;;;;;14.65;4.65;;;;;;;;;;1657129;84;21084;-79
2022/08/14 06:32:32;;;;;;;24.05;5.42;;;;;;;;;;1660507;85;21094;-78
2022/08/14 06:34:57;;;;;;;21.20;5.00;;;;;;;;;;1660687;85;20935;-79
2022/08/14 06:37:23;;;;;;;18.90;5.62;;;;;;;;;;1660968;86;21061;-81
2022/08/14 06:39:49;;;;;;;18.32;5.25;;;;;;;;;;1660865;85;21011;-83
2022/08/14 06:42:14;;;;;;;18.05;5.03;;;;;;;;;;1657747;84;21638;-81
2022/08/14 06:44:40;;;;;;;19.27;4.87;;;;;;;;;;1653279;85;20822;-82
2022/08/14 06:47:07;;;;;;;12.73;4.78;;;;;;;;;;1660313;85;21098;-78
2022/08/14 06:49:33;;;;;;;17.37;4.67;;;;;;;;;;1660121;85;21129;-81
2022/08/14 06:52:03;;;;;;;25.48;5.15;;;;;;;;;;1662528;85;21066;-82
2022/08/14 06:54:29;;;;;;;13.32;4.90;;;;;;;;;;1536856;90;21109;-81
2022/08/14 06:56:55;;;;;;;15.63;5.28;;;;;;;;;;1532813;93;21149;-81
2022/08/14 06:59:20;;;;;;;13.05;4.83;;;;;;;;;;1535161;93;20974;-83
2022/08/14 07:07:14;;;;;;;14.25;4.70;;;;;;;;;;1587944;89;21672;-81
2022/08/14 07:09:40;;;;;;;17.65;4.87;;;;;;;;;;1589408;90;20898;-80
2022/08/14 07:12:07;;;;;;;12.47;4.67;;;;;;;;;;1576527;90;21000;-82
2022/08/14 07:14:33;;;;;;;20.30;4.80;;;;;;;;;;1598752;88;21117;-81
2022/08/14 07:16:59;;;;;;;13.55;5.03;;;;;;;;;;1557146;91;20948;-83
2022/08/14 07:19:24;;;;;;;14.03;4.72;;;;;;;;;;1606953;88;22712;-84
2022/08/14 07:21:50;;;;;;;9.60;4.85;;;;;;;;;;1608593;88;21044;-80
2022/08/14 07:24:17;;;;;;;14.20;5.00;;;;;;;;;;1592508;88;20920;-82
2022/08/14 07:26:42;;;;;;;17.48;5.50;;;;;;;;;;1612606;88;21134;-86
2022/08/14 07:29:08;;;;;;;11.70;5.10;;;;;;;;;;1614024;88;20919;-82
2022/08/14 07:31:34;;;;;;;13.10;4.80;;;;;;;;;;1614857;88;22084;-82
2022/08/14 07:34:00;;;;;;;12.43;4.72;;;;;;;;;;1615077;88;21081;-88
2022/08/14 07:36:27;;;;;;;11.95;4.75;;;;;;;;;;1614961;88;20938;-83
2022/08/14 07:38:53;;;;;;;13.95;5.47;;;;;;;;;;1614410;88;21074;-78
2022/08/14 07:41:19;;;;;;;14.38;5.25;;;;;;;;;;1614652;88;21010;-81
2022/08/14 07:43:44;;;;;;;15.30;4.85;;;;;;;;;;1614739;88;21725;-80
2022/08/14 07:46:10;;;;;;;10.30;4.30;;;;;;;;;;1606276;87;20994;-81
2022/08/14 07:48:42;;;;;;;11.22;4.42;;;;;;;;;;1633834;87;21158;-79
2022/08/14 07:51:07;;;;;;;;;;;;;;;;;;1675605;81;21616;-80
2022/08/14 07:53:33;;;;;;;22.22;4.83;;;;;;;;;;1752822;81;20604;-82
2022/08/14 07:55:59;;;;;;;11.95;4.87;;;;;;;;;;1712481;81;21084;-82
2022/08/14 07:58:25;;;;;;;15.35;4.65;;;;;;;;;;1762707;80;20964;-84
2022/08/14 08:00:54;;;;;;;8.18;4.78;;;;;;;;;;1757094;81;20895;-83
2022/08/14 08:03:21;;;;;;;12.33;4.87;;;;;;;;;;1734354;81;21025;-82
2022/08/14 08:05:47;;;;;;;14.75;4.55;;;;;;;;;;1760636;81;21048;-82
2022/08/14 08:08:15;;;;;;;14.05;5.15;;;;;;;;;;1762774;81;21636;-80
2022/08/14 08:10:41;;;;;;;12.90;4.50;;;;;;;;;;1762965;80;21504;-81
2022/08/14 08:13:12;;;;;;;11.75;4.80;;;;;;;;;;1763432;81;21584;-80
2022/08/14 08:15:47;;;;;;;15.38;5.00;;;;;;;;;;1762055;81;20968;-80
2022/08/14 08:18:16;;;;;;;19.00;5.55;;;;;;;;;;1753874;81;21398;-82
2022/08/14 08:20:45;;;;;;;12.43;4.97;;;;;;;;;;1761844;81;21022;-82
2022/08/14 08:23:12;;;;;;;11.97;4.92;;;;;;;;;;1762164;81;21488;-81
2022/08/14 08:25:40;;;;;;;21.55;5.22;;;;;;;;;;1758952;81;21052;-80
2022/08/14 08:28:08;;;;;;;16.73;5.67;;;;;;;;;;1748653;80;21026;-78
2022/08/14 08:30:37;;;;;;;16.00;5.17;;;;;;;;;;1656211;85;21635;-81
2022/08/14 08:33:04;;;;;;;11.88;4.92;;;;;;;;;;1656346;86;21953;-79
2022/08/14 08:35:33;;;;;;;25.62;5.90;;;;;;;;;;1654588;85;21076;-77
2022/08/14 08:38:06;;;;;;;14.68;4.50;;;;;;;;;;1657288;85;22078;-79
2022/08/14 08:40:37;;;;;;;13.28;5.20;;;;;;;;;;1657257;85;21612;-78
2022/08/14 08:43:05;;;;;;;10.70;4.37;;;;;;;;;;1641071;85;21106;-77
2022/08/14 08:45:33;;;;;;;15.83;4.83;;;;;;;;;;1662288;84;21199;-80
2022/08/14 08:47:58;;;;;;;15.10;5.12;;;;;;;;;;1663628;84;21615;-78
2022/08/14 08:50:33;;;;;;;17.55;5.62;;;;;;;;;;1658404;85;21002;-78
2022/08/14 08:53:02;;;;;;;14.10;4.72;;;;;;;;;;1570053;91;21142;-79
2022/08/14 08:55:42;;;;;;;19.85;5.45;;;;;;;;;;1587657;89;21116;-79
2022/08/14 08:58:13;;;;;;;13.50;4.75;;;;;;;;;;1586968;89;21171;-78
2022/08/14 09:00:40;;;;;;;11.78;4.92;;;;;;;;;;1587266;89;21643;-79
2022/08/14 09:03:16;;;;;;;10.98;4.50;;;;;;;;;;1588189;90;21077;-78
2022/08/14 09:05:57;;;;;;;12.82;5.30;;;;;;;;;;1585136;90;21216;-78
2022/08/14 09:08:25;;;;;;;18.75;5.42;;;;;;;;;;1574614;90;21085;-79
2022/08/14 09:10:52;;;;;;;15.18;4.95;;;;;;;;;;1578770;89;21130;-78
2022/08/14 09:13:18;;;;;;;18.17;5.12;;;;;;;;;;1579225;90;21018;-80
2022/08/14 09:15:46;;;;;;;13.60;4.90;;;;;;;;;;1578949;90;21090;-79
2022/08/14 09:18:15;;;;;;;17.92;5.08;;;;;;;;;;1575597;90;21639;-78
2022/08/14 09:20:44;;;;;;;8.63;4.67;;;;;;;;;;1574493;89;21101;-79
2022/08/14 09:23:11;;;;;;;20.88;5.53;;;;;;;;;;1572506;90;21327;-80
2022/08/14 09:25:40;;;;;;;14.58;5.00;;;;;;;;;;1573027;90;21102;-81
2022/08/14 09:28:06;;;;;;;12.45;5.47;;;;;;;;;;1593657;89;21111;-79
2022/08/14 09:30:34;;;;;;;18.40;5.03;;;;;;;;;;1607476;89;21097;-79
2022/08/14 09:33:09;;;;;;;18.55;5.45;;;;;;;;;;1605818;89;21079;-75
2022/08/14 09:35:53;;;;;;;16.20;5.15;;;;;;;;;;1580732;90;21106;-80
2022/08/14 09:38:45;;;;;;;11.75;4.90;;;;;;;;;;1582014;90;21123;-78
2022/08/14 09:41:45;;;;;;;16.40;5.00;;;;;;;;;;1579994;89;22255;-79
2022/08/14 09:44:31;;;;;;;17.32;5.90;;;;;;;;;;1581142;90;21083;-78
2022/08/14 09:46:57;;;;;;;14.85;5.28;;;;;;;;;;1554806;91;21068;-77
2022/08/14 09:49:33;;;;;;;14.65;5.12;;;;;;;;;;1568708;90;21237;-79
2022/08/14 09:52:09;;;;;;;14.55;5.50;;;;;;;;;;1623884;87;21560;-76
2022/08/14 09:54:41;;;;;;;16.90;5.67;;;;;;;;;;1586626;90;21101;-76
2022/08/14 09:57:09;;;;;;;21.70;5.70;;;;;;;;;;1560710;91;21089;-77
2022/08/14 09:59:47;;;;;;;14.05;6.03;;;;;;;;;;1561276;90;21030;-77
2022/08/14 10:02:21;;;;;;;13.20;4.83;;;;;;;;;;1561017;91;21147;-79
2022/08/14 10:04:59;;;;;;;17.25;5.78;;;;;;;;;;1566102;89;21106;-79
2022/08/14 10:07:37;;;;;;;13.35;5.15;;;;;;;;;;1593969;89;21099;-78
2022/08/14 10:10:04;;;;;;;11.35;5.37;;;;;;;;;;1599834;89;21138;-77
2022/08/14 10:15:19;;;;;;;13.60;4.67;;;;;;;;;;1584890;90;21647;-77
2022/08/14 10:17:47;;;;;;;12.05;4.40;;;;;;;;;;1548165;92;21125;-77
2022/08/14 10:20:16;;;;;;;12.85;5.30;;;;;;;;;;1549977;92;21142;-79
2022/08/14 10:22:42;;;;;;;12.43;4.92;;;;;;;;;;1550261;91;21183;-77
2022/08/14 10:25:13;;;;;;;13.40;5.03;;;;;;;;;;1548999;92;21594;-79
2022/08/14 10:27:39;;;;;;;24.57;4.70;;;;;;;;;;1550066;92;21148;-78
2022/08/14 10:30:13;;;;;;;18.57;5.08;;;;;;;;;;1549133;92;21152;-78
2022/08/14 10:32:44;;;;;;;10.78;4.80;;;;;;;;;;1553413;92;21117;-77
2022/08/14 10:35:11;;;;;;;8.20;4.40;;;;;;;;;;1542422;92;21062;-78
2022/08/14 10:37:48;;;;;;;11.88;4.40;;;;;;;;;;1558211;92;21581;-79
2022/08/14 10:40:18;;;;;;;15.98;4.75;;;;;;;;;;1562053;90;21942;-80
2022/08/14 10:42:45;;;;;;;9.78;4.72;;;;;;;;;;1494039;96;21170;-78
2022/08/14 10:45:23;;;;;;;12.70;4.95;;;;;;;;;;1490873;93;21130;-78
2022/08/14 10:47:50;;;;;;;38.05;5.25;;;;;;;;;;1528633;92;21119;-78
2022/08/14 10:50:17;;;;;;;11.70;4.45;;;;;;;;;;1535654;92;21146;-79
2022/08/14 10:52:45;;;;;;;8.68;4.10;;;;;;;;;;1533315;92;21270;-78
2022/08/14 10:55:15;;;;;;;12.33;4.58;;;;;;;;;;1535275;92;20974;-79
2022/08/14 10:57:49;;;;;;;12.25;5.12;;;;;;;;;;1536313;92;21098;-78
2022/08/14 11:00:19;;;;;;;15.80;4.47;;;;;;;;;;1530378;92;21197;-81
2022/08/14 11:02:57;;;;;;;13.72;4.22;;;;;;;;;;1533819;92;21152;-79
2022/08/14 11:05:25;;;;;;;7.37;4.40;;;;;;;;;;1483893;95;21750;-79
2022/08/14 11:07:59;;;;;;;12.28;4.47;;;;;;;;;;1491873;95;21554;-80
2022/08/14 11:10:43;;;;;;;12.60;4.58;;;;;;;;;;1487151;95;21111;-79
2022/08/14 11:13:12;;;;;;;13.43;4.35;;;;;;;;;;1490212;95;21165;-77
2022/08/14 11:15:38;;;;;;;12.98;4.80;;;;;;;;;;1467092;96;21127;-80
2022/08/14 11:18:04;;;;;;;15.20;5.08;;;;;;;;;;1477880;93;21333;-79
2022/08/14 11:20:30;;;;;;;14.98;4.60;;;;;;;;;;1512038;94;21697;-76
2022/08/14 11:22:59;;;;;;;15.72;4.47;;;;;;;;;;1512137;94;21121;-79
2022/08/14 11:25:30;;;;;;;13.60;4.87;;;;;;;;;;1514361;94;21157;-79
2022/08/14 11:27:57;;;;;;;16.77;4.60;;;;;;;;;;1510949;92;21697;-79
2022/08/14 11:30:25;;;;;;;12.50;4.50;;;;;;;;;;1515549;94;21102;-81
2022/08/14 11:32:53;;;;;;;13.22;4.20;;;;;;;;;;1564918;89;21050;-79
2022/08/14 11:35:22;;;;;;;9.30;4.35;;;;;;;;;;1573532;90;21149;-79
2022/08/14 11:37:51;;;;;;;11.48;4.35;;;;;;;;;;1595852;89;21041;-79
2022/08/14 11:40:18;;;;;;;8.63;4.35;;;;;;;;;;1648287;85;21003;-80
2022/08/14 11:42:47;;;;;;;16.70;4.87;;;;;;;;;;1690399;83;21979;-80
2022/08/14 11:45:14;;;;;;;16.40;4.33;;;;;;;;;;1709689;83;21527;-79
2022/08/14 11:47:40;;;;;;;13.45;5.08;;;;;;;;;;1703673;83;21043;-79
2022/08/14 11:50:22;;;;;;;12.63;3.80;;;;;;;;;;1701963;84;21046;-79
2022/08/14 11:52:48;;;;;;;9.47;4.07;;;;;;;;;;1637065;86;21474;-81
2022/08/14 11:55:14;;;;;;;12.13;4.58;;;;;;;;;;1637376;86;21430;-79
2022/08/14 11:57:42;;;;;;;8.68;4.17;;;;;;;;;;1637259;86;21145;-78
2022/08/14 12:00:15;;;;;;;13.60;4.15;;;;;;;;;;1642478;86;21038;-82
2022/08/14 12:02:50;;;;;;;14.38;4.00;;;;;;;;;;1641235;84;21050;-75
2022/08/14 12:05:35;;;;;;;11.28;3.87;;;;;;;;;;1574347;91;21519;-77
2022/08/14 12:08:03;;;;;;;12.55;4.28;;;;;;;;;;1570822;91;21971;-80
2022/08/14 12:10:30;;;;;;;11.30;4.22;;;;;;;;;;1573568;91;21124;-79
2022/08/14 12:12:56;;;;;;;11.22;4.35;;;;;;;;;;1573708;91;21060;-80
2022/08/14 12:15:33;;;;;;;10.00;3.90;;;;;;;;;;1569659;89;21047;-79
2022/08/14 12:18:00;;;;;;;11.60;3.98;;;;;;;;;;1572604;91;21046;-79
2022/08/14 12:20:32;;;;;;;13.83;4.17;;;;;;;;;;1574207;91;22027;-78
2022/08/14 12:22:59;;;;;;;6.28;3.55;;;;;;;;;;1563789;91;21625;-80
2022/08/14 12:25:26;;;;;;;11.48;4.03;;;;;;;;;;1541095;91;21104;-78
2022/08/14 12:27:54;;;;;;;9.15;4.03;;;;;;;;;;1564703;90;21623;-78
2022/08/14 12:30:38;;;;;;;14.73;4.25;;;;;;;;;;1568404;90;21134;-78
2022/08/14 12:33:07;;;;;;;13.35;3.90;;;;;;;;;;1563612;91;21989;-78
2022/08/14 12:35:38;;;;;;;11.00;4.22;;;;;;;;;;1564998;90;21033;-79
2022/08/14 12:38:04;;;;;;;10.55;4.20;;;;;;;;;;1557026;90;21119;-78
2022/08/14 12:40:30;;;;;;;12.23;4.30;;;;;;;;;;1563246;89;21085;-77
2022/08/14 12:43:02;;;;;;;13.95;3.92;;;;;;;;;;1580040;89;20967;-77
2022/08/14 12:45:32;;;;;;;12.30;4.42;;;;;;;;;;1583738;89;21429;-77
2022/08/14 12:48:05;;;;;;;14.00;4.70;;;;;;;;;;1593017;89;21050;-79
2022/08/14 12:50:39;;;;;;;16.27;3.98;;;;;;;;;;1625030;86;21670;-78
2022/08/14 12:53:06;;;;;;;10.23;4.03;;;;;;;;;;1633794;86;21555;-79
2022/08/14 12:55:34;;;;;;;14.20;4.40;;;;;;;;;;1632982;86;21097;-79
2022/08/14 12:58:04;;;;;;;13.22;4.50;;;;;;;;;;1630341;87;21117;-81
2022/08/14 13:00:31;;;;;;;10.05;4.70;;;;;;;;;;1631551;87;21637;-81
2022/08/14 13:05:47;;;;;;;13.70;4.30;;;;;;;;;;1612124;87;21577;-79
2022/08/14 13:08:13;;;;;;;14.18;4.95;;;;;;;;;;1625024;86;21542;-80
2022/08/14 13:10:39;;;;;;;14.15;5.10;;;;;;;;;;1635338;87;21123;-80
2022/08/14 13:13:07;;;;;;;12.05;4.85;;;;;;;;;;1651584;85;21171;-81
2022/08/14 13:15:33;;;;;;;14.68;4.80;;;;;;;;;;1676009;85;21083;-81
2022/08/14 13:18:03;;;;;;;15.00;5.30;;;;;;;;;;1676185;85;21042;-80
2022/08/14 13:20:27;;;;;;;15.32;5.37;;;;;;;;;;1656322;85;21753;-80
2022/08/14 13:22:54;;;;;;;13.18;5.55;;;;;;;;;;1655673;85;22089;-81
2022/08/14 13:25:23;;;;;;;13.15;5.08;;;;;;;;;;1655715;86;21087;-81
2022/08/14 13:27:53;;;;;;;11.33;5.25;;;;;;;;;;1560346;91;21077;-82
2022/08/14 13:30:21;;;;;;;15.32;5.65;;;;;;;;;;1560526;91;21645;-82
2022/08/14 13:32:47;;;;;;;10.48;5.50;;;;;;;;;;1559878;90;21398;-80
2022/08/14 13:35:17;;;;;;;15.48;5.30;;;;;;;;;;1560001;91;20961;-80
2022/08/14 13:37:44;;;;;;;12.03;5.45;;;;;;;;;;1534223;92;21069;-80
2022/08/14 13:40:11;;;;;;;13.25;4.97;;;;;;;;;;1534644;92;21122;-80
2022/08/14 13:42:40;;;;;;;15.63;5.50;;;;;;;;;;1534435;92;21075;-80
2022/08/14 13:45:07;;;;;;;11.88;4.92;;;;;;;;;;1533485;91;21078;-81
2022/08/14 13:47:34;;;;;;;11.20;4.60;;;;;;;;;;1578462;88;21227;-80
2022/08/14 13:50:03;;;;;;;14.10;5.08;;;;;;;;;;1597836;88;21074;-80
2022/08/14 13:52:39;;;;;;;12.70;5.22;;;;;;;;;;1598682;87;21117;-82
2022/08/14 13:55:04;;;;;;;14.25;5.17;;;;;;;;;;1509298;91;21577;-81
2022/08/14 13:57:35;;;;;;;19.80;4.60;;;;;;;;;;1506931;94;21184;-79
2022/08/14 14:00:05;;;;;;;15.65;5.17;;;;;;;;;;1508054;94;21108;-80
2022/08/14 14:02:31;;;;;;;14.65;4.75;;;;;;;;;;1518111;93;21084;-79
2022/08/14 14:04:58;;;;;;;11.35;5.00;;;;;;;;;;1525883;93;21133;-79
2022/08/14 14:07:24;;;;;;;13.18;4.70;;;;;;;;;;1506943;95;21173;-79
2022/08/14 14:09:52;;;;;;;15.93;5.05;;;;;;;;;;1506981;95;21062;-80
2022/08/14 14:12:18;;;;;;;15.10;5.00;;;;;;;;;;1518079;93;21317;-78
2022/08/14 14:14:45;;;;;;;10.95;4.87;;;;;;;;;;1529904;93;21099;-79
2022/08/14 14:17:12;;;;;;;13.10;4.92;;;;;;;;;;1529488;93;21110;-78
2022/08/14 14:19:42;;;;;;;9.73;4.95;;;;;;;;;;1529534;93;21091;-78
2022/08/14 14:22:08;;;;;;;15.13;4.72;;;;;;;;;;1525082;91;21133;-79
2022/08/14 14:24:34;;;;;;;14.63;4.33;;;;;;;;;;1542932;91;21216;-78
2022/08/14 14:27:03;;;;;;;17.20;4.83;;;;;;;;;;1529691;92;21018;-80
2022/08/14 14:29:33;;;;;;;11.93;5.10;;;;;;;;;;1519515;93;21162;-78
2022/08/14 14:32:00;;;;;;;17.27;4.85;;;;;;;;;;1592628;85;21508;-78
2022/08/14 14:34:28;;;;;;;12.05;4.92;;;;;;;;;;1766724;80;21103;-78
2022/08/14 14:36:54;;;;;;;11.93;4.72;;;;;;;;;;1776088;80;21143;-78
2022/08/14 14:39:26;;;;;;;18.57;5.92;;;;;;;;;;1776033;80;21003;-78
2022/08/14 14:41:55;;;;;;;13.62;5.20;;;;;;;;;;1775903;80;21066;-80
2022/08/14 14:44:30;;;;;;;14.23;5.15;;;;;;;;;;1775910;80;21512;-81
2022/08/14 14:46:55;;;;;;;13.88;5.17;;;;;;;;;;1770966;80;21591;-79
2022/08/14 14:49:22;;;;;;;18.07;6.12;;;;;;;;;;1775749;80;21037;-80
2022/08/14 14:51:49;;;;;;;14.13;4.95;;;;;;;;;;1770648;80;20937;-78
2022/08/14 14:54:17;;;;;;;10.58;4.90;;;;;;;;;;1775938;80;21039;-80
2022/08/14 14:56:43;;;;;;;9.45;4.97;;;;;;;;;;1775801;80;21574;-80
2022/08/14 14:59:15;;;;;;;12.35;5.03;;;;;;;;;;1775905;80;21118;-81
2022/08/14 15:01:44;;;;;;;10.33;5.07;;;;;;;;;;1746095;80;21952;-80
2022/08/14 15:04:09;;;;;;;14.40;5.22;;;;;;;;;;1775890;80;20977;-78